createdAt,value
2022-09-05T00:02:41.870Z,2.72
2022-09-05T00:06:03.613Z,2.53
2022-09-05T00:08:59.071Z,2.42
2022-09-05T00:11:50.927Z,2.38
2022-09-05T00:15:17.796Z,2.65
2022-09-05T00:24:18.581Z,2.67
2022-09-05T00:24:37.913Z,2.22
2022-09-05T00:25:27.894Z,2.47
2022-09-05T00:28:26.815Z,2.65
2022-09-05T00:31:55.476Z,3.17
2022-09-05T00:34:52.313Z,2.80
2022-09-05T00:37:43.262Z,2.90
2022-09-05T00:40:35.317Z,2.55
2022-09-05T00:43:26.643Z,2.72
2022-09-05T00:46:16.751Z,2.85
2022-09-05T00:49:17.012Z,2.60
2022-09-05T00:52:09.366Z,3.15
2022-09-05T00:55:07.553Z,2.78
2022-09-05T00:58:07.748Z,2.90
2022-09-05T01:00:58.888Z,3.03
2022-09-05T01:03:56.804Z,2.80
2022-09-05T01:06:58.221Z,2.67
2022-09-05T01:09:57.587Z,2.63
2022-09-05T01:12:56.968Z,2.95
2022-09-05T01:15:54.773Z,3.15
2022-09-05T01:18:49.830Z,3.20
2022-09-05T01:21:57.171Z,2.85
2022-09-05T01:25:11.578Z,2.80
2022-09-05T01:29:13.246Z,3.08
2022-09-05T01:31:19.200Z,2.53
2022-09-05T01:34:15.337Z,2.30
2022-09-05T01:37:33.711Z,2.70
2022-09-05T01:40:25.793Z,2.70
2022-09-05T01:43:20.586Z,3.13
2022-09-05T01:46:23.846Z,2.58
2022-09-05T01:49:25.074Z,2.90
2022-09-05T01:52:28.171Z,2.47
2022-09-05T01:55:31.182Z,2.90
2022-09-05T01:58:27.485Z,2.83
2022-09-05T02:01:32.336Z,2.83
2022-09-05T02:04:38.366Z,2.75
2022-09-05T02:07:36.335Z,2.50
2022-09-05T02:10:49.915Z,2.60
2022-09-05T02:13:51.543Z,2.75
2022-09-05T02:16:45.409Z,2.42
2022-09-05T02:19:43.531Z,2.20
2022-09-05T02:22:43.871Z,2.42
2022-09-05T02:26:01.041Z,3.00
2022-09-05T02:28:55.755Z,2.70
2022-09-05T02:31:49.311Z,2.50
2022-09-05T02:34:44.702Z,3.15
2022-09-05T02:38:45.500Z,2.90
2022-09-05T02:45:08.058Z,2.55
2022-09-05T02:45:16.767Z,3.08
2022-09-05T02:47:24.275Z,2.80
2022-09-05T02:54:35.668Z,2.55
2022-09-05T02:57:35.419Z,2.85
2022-09-05T02:57:38.173Z,2.70
2022-09-05T03:00:16.702Z,3.22
2022-09-05T03:03:20.965Z,2.70
2022-09-05T03:06:16.440Z,2.22
2022-09-05T03:09:33.867Z,3.25
2022-09-05T03:12:57.007Z,2.92
2022-09-05T03:16:16.208Z,3.30
2022-09-05T03:19:52.339Z,2.53
2022-09-05T03:23:02.653Z,2.72
2022-09-05T03:26:05.887Z,3.15
2022-09-05T03:29:33.776Z,2.50
2022-09-05T03:32:51.980Z,2.58
2022-09-05T03:36:12.856Z,3.20
2022-09-05T03:39:24.418Z,3.28
2022-09-05T03:42:27.939Z,2.85
2022-09-05T03:45:50.447Z,3.47
2022-09-05T03:51:07.924Z,3.08
2022-09-05T03:57:13.650Z,2.85
2022-09-05T03:57:14.942Z,3.45
2022-09-05T03:59:34.626Z,3.10
2022-09-05T04:08:07.918Z,2.47
2022-09-05T04:08:23.966Z,2.38
2022-09-05T04:08:57.095Z,3.15
2022-09-05T04:11:48.547Z,2.70
2022-09-05T04:14:42.778Z,3.30
2022-09-05T04:17:36.516Z,2.92
2022-09-05T04:20:32.342Z,3.33
2022-09-05T04:23:31.585Z,2.97
2022-09-05T04:26:42.581Z,3.30
2022-09-05T04:29:41.042Z,2.97
2022-09-05T04:32:37.080Z,3.17
2022-09-05T04:35:31.796Z,4.03
2022-09-05T04:38:36.393Z,3.47
2022-09-05T04:41:39.423Z,3.15
2022-09-05T04:44:32.211Z,3.45
2022-09-05T04:47:23.429Z,3.20
2022-09-05T04:50:15.851Z,2.88
2022-09-05T04:53:14.789Z,2.90
2022-09-05T04:56:04.046Z,3.10
2022-09-05T05:01:34.586Z,3.03
2022-09-05T05:06:10.846Z,3.63
2022-09-05T05:06:12.752Z,3.03
2022-09-05T05:08:39.644Z,3.30
2022-09-05T05:17:59.819Z,3.85
2022-09-05T05:18:14.680Z,3.35
2022-09-05T05:18:49.043Z,3.42
2022-09-05T05:21:22.277Z,3.17
2022-09-05T05:24:12.911Z,3.47
2022-09-05T05:27:07.476Z,3.03
2022-09-05T05:30:01.407Z,3.50
2022-09-05T05:32:51.729Z,3.75
2022-09-05T05:35:48.080Z,3.25
2022-09-05T05:38:42.375Z,3.90
2022-09-05T05:41:38.889Z,3.63
2022-09-05T05:44:29.896Z,4.13
2022-09-05T05:47:31.765Z,4.20
2022-09-05T05:50:33.177Z,3.20
2022-09-05T05:53:42.393Z,3.47
2022-09-05T05:56:58.870Z,3.65
2022-09-05T06:00:00.293Z,3.42
2022-09-05T06:03:27.531Z,3.80
2022-09-05T06:06:34.348Z,3.58
2022-09-05T06:14:53.309Z,3.67
2022-09-05T06:15:00.161Z,3.47
2022-09-05T06:16:55.946Z,3.55
2022-09-05T06:22:07.671Z,3.15
2022-09-05T06:23:57.708Z,3.92
2022-09-05T06:26:59.702Z,4.65
2022-09-05T06:29:58.774Z,6.07
2022-09-05T06:32:59.104Z,5.47
2022-09-05T06:35:59.877Z,5.32
2022-09-05T06:39:06.614Z,5.32
2022-09-05T06:42:10.911Z,5.00
2022-09-05T06:45:31.392Z,5.38
2022-09-05T06:48:45.888Z,5.05
2022-09-05T06:52:17.893Z,5.25
2022-09-05T06:55:32.673Z,3.88
2022-09-05T06:58:53.719Z,4.50
2022-09-05T07:02:00.423Z,4.43
2022-09-05T07:05:36.955Z,4.03
2022-09-05T07:08:36.285Z,4.50
2022-09-05T07:11:31.601Z,4.20
2022-09-05T07:14:22.963Z,4.50
2022-09-05T07:17:17.040Z,4.70
2022-09-05T07:20:15.477Z,3.97
2022-09-05T07:24:06.779Z,4.45
2022-09-05T07:26:42.008Z,3.95
2022-09-05T07:29:34.306Z,4.18
2022-09-05T07:32:24.771Z,4.22
2022-09-05T07:35:18.831Z,4.32
2022-09-05T07:38:13.918Z,4.50
2022-09-05T07:41:06.341Z,3.75
2022-09-05T07:43:56.698Z,4.30
2022-09-05T07:46:50.018Z,4.80
2022-09-05T07:49:45.589Z,4.15
2022-09-05T07:57:01.706Z,5.03
2022-09-05T07:57:10.063Z,4.78
2022-09-05T07:59:11.557Z,4.00
2022-09-05T08:02:02.554Z,5.53
2022-09-05T08:04:51.604Z,4.43
2022-09-05T08:07:47.402Z,4.57
2022-09-05T08:11:24.612Z,4.78
2022-09-05T08:14:40.591Z,4.65
2022-09-05T08:17:16.589Z,4.70
2022-09-05T08:20:20.288Z,5.32
2022-09-05T08:23:12.839Z,4.72
2022-09-05T08:26:08.038Z,5.20
2022-09-05T08:29:02.985Z,5.13
2022-09-05T08:31:53.638Z,5.88
2022-09-05T08:34:46.406Z,5.30
2022-09-05T08:37:35.254Z,5.22
2022-09-05T08:40:29.684Z,4.60
2022-09-05T08:46:37.489Z,5.50
2022-09-05T08:46:49.580Z,5.45
2022-09-05T08:49:52.727Z,5.47
2022-09-05T08:52:51.265Z,4.60
2022-09-05T08:55:46.115Z,5.30
2022-09-05T08:59:32.336Z,5.18
2022-09-05T09:02:46.597Z,5.18
2022-09-05T09:06:14.354Z,4.80
2022-09-05T09:09:13.004Z,5.22
2022-09-05T09:12:10.565Z,4.97
2022-09-05T09:15:01.345Z,5.38
2022-09-05T09:17:51.155Z,5.15
2022-09-05T09:20:52.760Z,5.13
2022-09-05T09:23:48.459Z,4.63
2022-09-05T09:26:43.375Z,4.85
2022-09-05T09:29:35.779Z,4.57
2022-09-05T09:32:25.543Z,5.35
2022-09-05T09:35:20.723Z,4.78
2022-09-05T09:38:24.560Z,5.25
2022-09-05T09:41:46.415Z,5.28
2022-09-05T09:45:28.718Z,5.00
2022-09-05T09:48:44.309Z,5.20
2022-09-05T09:51:42.109Z,5.30
2022-09-05T09:55:40.178Z,4.63
2022-09-05T09:58:38.258Z,5.30
2022-09-05T10:01:36.145Z,5.30
2022-09-05T10:10:35.683Z,4.45
2022-09-05T10:10:56.269Z,5.07
2022-09-05T10:11:53.614Z,4.90
2022-09-05T10:15:15.162Z,4.38
2022-09-05T10:18:37.919Z,4.20
2022-09-05T10:21:47.191Z,4.63
2022-09-05T10:25:28.976Z,4.18
2022-09-05T10:28:27.441Z,4.03
2022-09-05T10:33:58.333Z,3.80
2022-09-05T10:35:13.523Z,4.32
2022-09-05T10:37:43.137Z,4.35
2022-09-05T10:40:45.462Z,4.05
2022-09-05T10:43:50.755Z,4.38
2022-09-05T10:46:51.577Z,4.07
2022-09-05T10:49:44.787Z,3.63
2022-09-05T10:52:36.983Z,4.13
2022-09-05T10:55:28.243Z,3.47
2022-09-05T10:58:30.381Z,3.80
2022-09-05T11:02:27.747Z,4.22
2022-09-05T11:04:56.664Z,3.65
2022-09-05T11:07:52.790Z,2.90
2022-09-05T11:10:47.243Z,2.90
2022-09-05T11:13:45.920Z,2.75
2022-09-05T11:16:45.216Z,2.78
2022-09-05T11:19:41.096Z,2.33
2022-09-05T11:22:38.632Z,3.15
2022-09-05T11:25:40.021Z,3.20
2022-09-05T11:28:36.980Z,2.97
2022-09-05T11:32:43.538Z,2.97
2022-09-05T11:39:47.843Z,2.60
2022-09-05T11:40:08.640Z,3.05
2022-09-05T11:41:57.622Z,2.58
2022-09-05T11:45:11.513Z,3.35
2022-09-05T11:48:34.806Z,2.72
2022-09-05T11:52:09.203Z,2.60
2022-09-05T11:55:21.455Z,2.30
2022-09-05T11:58:44.758Z,2.65
2022-09-05T12:01:44.154Z,2.55
2022-09-05T12:05:50.767Z,2.22
2022-09-05T12:08:06.323Z,2.42
2022-09-05T12:11:05.467Z,2.70
2022-09-05T12:13:58.147Z,2.53
2022-09-05T12:16:57.011Z,2.63
2022-09-05T12:19:51.988Z,3.08
2022-09-05T12:22:45.332Z,2.53
2022-09-05T12:27:41.716Z,2.60
2022-09-05T12:29:33.737Z,2.25
2022-09-05T12:33:11.388Z,2.55
2022-09-05T12:36:12.596Z,2.60
2022-09-05T12:40:56.038Z,2.67
2022-09-05T12:42:13.693Z,2.85
2022-09-05T12:45:09.161Z,2.17
2022-09-05T12:48:01.349Z,2.45
2022-09-05T12:50:56.947Z,2.22
2022-09-05T12:53:46.745Z,2.67
2022-09-05T12:58:53.692Z,2.45
2022-09-05T13:03:07.652Z,2.50
2022-09-05T13:03:43.954Z,2.60
2022-09-05T13:06:25.741Z,2.72
2022-09-05T13:09:22.862Z,2.85
2022-09-05T13:14:57.660Z,2.58
2022-09-05T13:15:36.251Z,2.33
2022-09-05T13:18:28.606Z,2.78
2022-09-05T13:21:23.316Z,2.75
2022-09-05T13:24:15.388Z,3.05
2022-09-05T13:27:13.721Z,2.35
2022-09-05T13:32:32.251Z,2.78
2022-09-05T13:38:02.867Z,2.55
2022-09-05T13:38:28.908Z,3.22
2022-09-05T13:39:48.226Z,3.45
2022-09-05T13:42:42.604Z,3.28
2022-09-05T13:45:32.011Z,3.10
2022-09-05T13:51:45.357Z,2.63
2022-09-05T13:54:41.308Z,3.38
2022-09-05T13:57:36.593Z,3.03
2022-09-05T14:00:48.645Z,3.47
2022-09-05T14:03:56.018Z,3.13
2022-09-05T14:10:47.566Z,3.10
2022-09-05T14:13:52.173Z,3.22
2022-09-05T14:16:53.494Z,2.97
2022-09-05T14:20:04.094Z,3.47
2022-09-05T14:22:55.537Z,2.97
2022-09-05T14:25:45.932Z,3.35
2022-09-05T14:28:42.018Z,3.35
2022-09-05T14:37:34.721Z,3.35
2022-09-05T14:37:52.108Z,3.05
2022-09-05T14:38:25.653Z,3.20
2022-09-05T14:42:07.485Z,3.20
2022-09-05T14:45:20.216Z,3.35
2022-09-05T14:48:30.393Z,3.30
2022-09-05T14:51:43.179Z,3.03
2022-09-05T15:02:42.157Z,2.95
2022-09-05T15:02:48.252Z,2.67
2022-09-05T15:07:22.645Z,3.30
2022-09-05T15:12:15.381Z,3.50
2022-09-05T15:13:35.896Z,2.90
2022-09-05T15:16:26.072Z,2.42
2022-09-05T15:20:05.238Z,3.40
2022-09-05T15:22:57.462Z,3.22
2022-09-05T15:25:49.940Z,3.20
2022-09-05T15:28:40.069Z,3.22
2022-09-05T15:31:28.815Z,3.65
2022-09-05T15:34:24.699Z,3.22
2022-09-05T15:37:24.525Z,2.95
2022-09-05T15:40:24.073Z,3.13
2022-09-05T15:43:16.515Z,2.33
2022-09-05T15:46:06.150Z,2.63
2022-09-05T15:48:57.416Z,3.40
2022-09-05T15:51:48.466Z,2.78
2022-09-05T15:54:40.060Z,2.80
2022-09-05T15:57:33.351Z,2.70
2022-09-05T16:00:42.456Z,2.83
2022-09-05T16:05:19.569Z,3.00
2022-09-05T16:10:36.591Z,2.22
2022-09-05T16:10:37.467Z,3.28
2022-09-05T16:13:15.021Z,3.08
2022-09-05T16:19:30.780Z,3.25
2022-09-05T16:23:26.370Z,3.13
2022-09-05T16:23:33.135Z,3.28
2022-09-05T16:25:47.999Z,3.92
2022-09-05T16:28:40.097Z,3.45
2022-09-05T16:31:35.930Z,3.45
2022-09-05T16:34:29.084Z,3.75
2022-09-05T16:37:20.509Z,3.40
2022-09-05T16:40:14.523Z,3.80
2022-09-05T16:43:07.467Z,3.63
2022-09-05T16:46:02.007Z,4.00
2022-09-05T16:48:54.953Z,3.15
2022-09-05T16:51:50.007Z,3.45
2022-09-05T16:54:43.930Z,4.15
2022-09-05T16:57:36.529Z,3.53
2022-09-05T17:00:27.785Z,3.65
2022-09-05T17:03:28.953Z,4.18
2022-09-05T17:06:25.776Z,3.78
2022-09-05T17:09:23.705Z,3.88
2022-09-05T17:12:20.162Z,4.20
2022-09-05T17:15:13.061Z,3.92
2022-09-05T17:18:21.327Z,3.95
2022-09-05T17:21:36.570Z,4.05
2022-09-05T17:29:15.124Z,3.85
2022-09-05T17:29:36.098Z,4.13
2022-09-05T17:34:33.691Z,4.15
2022-09-05T17:38:11.204Z,4.70
2022-09-05T17:41:33.443Z,4.55
2022-09-05T17:44:26.792Z,5.15
2022-09-05T17:47:35.325Z,4.43
2022-09-05T17:50:50.997Z,3.92
2022-09-05T17:54:27.777Z,4.60
2022-09-05T17:57:45.600Z,4.63
2022-09-05T18:01:05.323Z,5.13
2022-09-05T18:04:16.192Z,4.70
2022-09-05T18:07:51.835Z,4.72
2022-09-05T18:11:14.141Z,4.90
2022-09-05T18:14:06.809Z,4.68
2022-09-05T18:20:09.971Z,4.78
2022-09-05T18:23:26.366Z,5.03
2022-09-05T18:26:20.966Z,4.68
2022-09-05T18:29:18.402Z,4.13
2022-09-05T18:32:13.715Z,4.80
2022-09-05T18:35:30.900Z,4.45
2022-09-05T18:38:50.426Z,4.55
2022-09-05T18:41:38.744Z,4.45
2022-09-05T18:44:32.681Z,4.28
2022-09-05T18:47:33.636Z,4.18
2022-09-05T18:50:27.850Z,3.92
2022-09-05T18:53:25.405Z,4.20
2022-09-05T18:56:21.065Z,4.13
2022-09-05T18:59:16.832Z,3.85
2022-09-05T19:02:28.703Z,4.35
2022-09-05T19:05:28.397Z,4.93
2022-09-05T19:08:38.527Z,4.57
2022-09-05T19:11:33.837Z,5.22
2022-09-05T19:14:33.191Z,5.10
2022-09-05T19:17:27.388Z,5.13
2022-09-05T19:20:32.838Z,4.57
2022-09-05T19:23:24.683Z,4.85
2022-09-05T19:26:14.000Z,3.78
2022-09-05T19:36:50.139Z,5.13
2022-09-05T19:36:50.761Z,5.30
2022-09-05T19:36:52.114Z,4.88
2022-09-05T19:40:23.907Z,5.07
2022-09-05T19:47:25.876Z,4.15
2022-09-05T19:47:39.630Z,4.95
2022-09-05T19:48:21.264Z,4.30
2022-09-05T19:51:16.568Z,3.63
2022-09-05T19:54:07.049Z,4.00
2022-09-05T19:56:59.380Z,3.90
2022-09-05T19:59:49.093Z,3.95
2022-09-05T20:02:37.849Z,3.85
2022-09-05T20:05:26.874Z,4.47
2022-09-05T20:08:16.778Z,4.63
2022-09-05T20:11:06.635Z,4.50
2022-09-05T20:13:55.560Z,3.90
2022-09-05T20:16:44.156Z,3.97
2022-09-05T20:19:36.407Z,3.80
2022-09-05T20:22:49.639Z,4.03
2022-09-05T20:25:41.341Z,4.10
2022-09-05T20:28:35.730Z,3.47
2022-09-05T20:31:27.636Z,3.70
2022-09-05T20:35:21.435Z,3.92
2022-09-05T20:43:14.978Z,3.55
2022-09-05T20:43:23.808Z,4.50
2022-09-05T20:43:57.763Z,3.67
2022-09-05T20:52:13.888Z,3.53
2022-09-05T20:54:14.954Z,3.72
2022-09-05T20:54:27.972Z,3.85
2022-09-05T20:56:23.045Z,4.13
2022-09-05T20:59:21.299Z,4.25
2022-09-05T21:02:23.244Z,3.72
2022-09-05T21:05:20.576Z,3.63
2022-09-05T21:08:19.548Z,3.72
2022-09-05T21:11:08.490Z,3.47
2022-09-05T21:14:02.023Z,4.60
2022-09-05T21:16:58.516Z,3.83
2022-09-05T21:19:53.946Z,3.83
2022-09-05T21:22:43.999Z,3.80
2022-09-05T21:25:43.689Z,3.78
2022-09-05T21:28:37.321Z,3.70
2022-09-05T21:31:30.295Z,4.13
2022-09-05T21:34:24.822Z,3.78
2022-09-05T21:37:14.078Z,3.78
2022-09-05T21:40:03.719Z,3.65
2022-09-05T21:46:39.998Z,3.88
2022-09-05T21:47:48.554Z,3.70
2022-09-05T21:49:12.009Z,3.88
2022-09-05T21:52:00.756Z,4.40
2022-09-05T21:59:22.192Z,3.67
2022-09-05T21:59:27.730Z,3.97
2022-09-05T22:01:08.435Z,4.22
2022-09-05T22:03:58.294Z,4.20
2022-09-05T22:06:48.375Z,4.10
2022-09-05T22:09:37.343Z,3.42
2022-09-05T22:12:33.627Z,3.55
2022-09-05T22:15:27.898Z,3.60
2022-09-05T22:18:18.357Z,3.40
2022-09-05T22:21:32.490Z,3.88
2022-09-05T22:24:20.113Z,3.75
2022-09-05T22:27:13.115Z,4.20
2022-09-05T22:30:04.364Z,3.70
2022-09-05T22:32:52.876Z,3.22
2022-09-05T22:35:41.807Z,3.92
2022-09-05T22:38:31.279Z,3.35
2022-09-05T22:41:30.431Z,3.92
2022-09-05T22:44:19.790Z,3.70
2022-09-05T22:47:09.168Z,3.88
2022-09-05T22:49:57.786Z,3.80
2022-09-05T22:52:46.247Z,4.13
2022-09-05T22:55:35.028Z,4.43
2022-09-05T22:58:24.911Z,3.75
2022-09-05T23:01:13.781Z,3.80
2022-09-05T23:04:02.320Z,4.00
2022-09-05T23:06:50.791Z,4.18
2022-09-05T23:09:39.279Z,4.15
2022-09-05T23:12:27.889Z,3.95
2022-09-05T23:15:18.326Z,4.03
2022-09-05T23:18:07.100Z,3.58
2022-09-05T23:20:55.543Z,3.75
2022-09-05T23:23:44.205Z,3.90
2022-09-05T23:26:32.749Z,3.50
2022-09-05T23:29:23.423Z,3.45
2022-09-05T23:32:13.235Z,3.92
2022-09-05T23:35:01.752Z,4.35
2022-09-05T23:37:50.379Z,3.83
2022-09-05T23:40:39.228Z,4.13
2022-09-05T23:43:27.889Z,3.83
2022-09-05T23:46:19.528Z,3.53
2022-09-05T23:49:09.385Z,3.88
2022-09-05T23:51:58.332Z,3.78
2022-09-05T23:54:46.795Z,3.83
2022-09-05T23:57:35.284Z,3.95
